Time;durP1;ratioP1;P1;durP2;ratioP2;P2;SDS_P1;SDS_P2;PMS_P1;PMS_P2;Temp;Humidity;BMP_temperature;BMP_pressure;BME280_temperature;BME280_humidity;BME280_pressure;Samples;Min_cycle;Max_cycle;Signal;HPM_P1;HPM_P2
2023/10/25 00:01:00;;;;;;;3.60;2.30;;;12.40;99.10;;;;;;5073590;28;20272;-58
2023/10/25 00:03:26;;;;;;;4.30;1.60;;;12.50;98.90;;;;;;5073440;28;20503;-58
2023/10/25 00:05:53;;;;;;;3.03;1.80;;;12.40;98.90;;;;;;5073620;28;20417;-58
2023/10/25 00:08:19;;;;;;;6.80;1.73;;;12.40;98.90;;;;;;5073575;28;20452;-58
2023/10/25 00:10:46;;;;;;;6.60;1.93;;;12.30;98.80;;;;;;5073343;28;20858;-58
2023/10/25 00:13:14;;;;;;;3.40;1.77;;;12.40;99.20;;;;;;5073769;28;20484;-58
2023/10/25 00:15:41;;;;;;;5.30;1.50;;;12.40;98.80;;;;;;5073690;28;20436;-58
2023/10/25 00:18:08;;;;;;;2.93;1.30;;;12.40;98.90;;;;;;5073260;28;20934;-58
2023/10/25 00:20:34;;;;;;;3.97;1.43;;;12.40;98.90;;;;;;5073451;28;20816;-59
2023/10/25 00:23:01;;;;;;;6.23;2.00;;;12.40;98.90;;;;;;5073462;28;20468;-58
2023/10/25 00:25:28;;;;;;;5.80;1.53;;;12.30;98.90;;;;;;5073123;28;20943;-58
2023/10/25 00:27:54;;;;;;;4.30;1.40;;;12.30;98.90;;;;;;5073016;28;20502;-58
2023/10/25 00:30:22;;;;;;;4.47;1.80;;;12.30;98.90;;;;;;5072916;28;21017;-58
2023/10/25 00:32:49;;;;;;;5.40;1.57;;;12.30;98.90;;;;;;5073015;28;20935;-58
2023/10/25 00:35:16;;;;;;;5.43;1.50;;;12.30;99.00;;;;;;5073103;28;20444;-58
2023/10/25 00:37:42;;;;;;;4.13;1.40;;;12.40;99.00;;;;;;5073386;28;20441;-58
2023/10/25 00:40:10;;;;;;;5.00;1.77;;;12.40;99.00;;;;;;5073310;28;20437;-58
2023/10/25 00:42:36;;;;;;;5.10;1.97;;;12.40;98.70;;;;;;5073334;28;20436;-58
2023/10/25 00:45:03;;;;;;;2.30;1.40;;;12.30;98.70;;;;;;5073263;28;20440;-58
2023/10/25 00:47:31;;;;;;;3.37;1.50;;;12.30;98.70;;;;;;5076814;28;20441;-58
2023/10/25 00:49:58;;;;;;;3.80;1.30;;;12.30;98.80;;;;;;5077291;28;20851;-58
2023/10/25 00:52:25;;;;;;;6.23;1.77;;;12.30;98.80;;;;;;5077191;28;20460;-58
2023/10/25 00:54:52;;;;;;;2.63;1.57;;;12.30;98.90;;;;;;5077002;28;20448;-58
2023/10/25 00:57:19;;;;;;;4.07;1.30;;;12.30;99.10;;;;;;5077335;28;20440;-58
2023/10/25 00:59:46;;;;;;;3.60;1.70;;;12.20;98.90;;;;;;5077122;28;20444;-58
2023/10/25 01:02:14;;;;;;;5.90;1.80;;;12.20;99.10;;;;;;5076883;28;20464;-58
2023/10/25 01:04:42;;;;;;;7.13;3.03;;;12.10;99.10;;;;;;5076692;28;20448;-58
2023/10/25 01:07:08;;;;;;;2.00;1.50;;;12.10;99.20;;;;;;5077061;28;20449;-58
2023/10/25 01:09:35;;;;;;;4.73;1.70;;;12.10;99.30;;;;;;5076902;28;20447;-58
2023/10/25 01:12:02;;;;;;;3.30;1.90;;;12.00;99.30;;;;;;5076807;28;20559;-58
2023/10/25 01:14:31;;;;;;;3.43;1.70;;;12.00;99.40;;;;;;5076851;28;20444;-57
2023/10/25 01:16:57;;;;;;;5.10;2.00;;;11.90;99.20;;;;;;5076493;28;20444;-58
2023/10/25 01:19:24;;;;;;;3.20;1.77;;;11.90;99.40;;;;;;5076833;28;20494;-58
2023/10/25 01:21:52;;;;;;;5.87;1.70;;;11.80;99.50;;;;;;5076644;28;20468;-58
2023/10/25 01:24:21;;;;;;;3.00;1.93;;;11.90;99.90;;;;;;5076740;28;20444;-58
2023/10/25 01:26:48;;;;;;;4.43;2.30;;;11.90;99.60;;;;;;5076347;28;20437;-58
2023/10/25 01:29:14;;;;;;;3.70;1.53;;;11.90;99.60;;;;;;5076244;28;20961;-58
2023/10/25 01:31:41;;;;;;;3.40;2.07;;;12.00;99.60;;;;;;5076389;28;20484;-57
2023/10/25 01:34:08;;;;;;;3.17;2.17;;;11.90;99.40;;;;;;5076151;28;20449;-57
2023/10/25 01:36:34;;;;;;;2.63;2.30;;;11.90;99.40;;;;;;5076166;28;20814;-57
2023/10/25 01:39:01;;;;;;;4.07;2.10;;;11.80;99.40;;;;;;5076426;28;20455;-57
2023/10/25 01:41:29;;;;;;;6.17;2.57;;;11.80;99.50;;;;;;5076286;28;20471;-58
2023/10/25 01:43:56;;;;;;;3.90;1.70;;;11.80;99.60;;;;;;5076279;28;20513;-58
2023/10/25 01:46:22;;;;;;;3.03;2.00;;;11.70;99.60;;;;;;5076289;28;20444;-58
2023/10/25 01:48:49;;;;;;;5.30;2.20;;;11.70;99.70;;;;;;5076236;28;20444;-58
2023/10/25 01:51:16;;;;;;;3.50;2.30;;;11.60;99.80;;;;;;5076214;28;20495;-58
2023/10/25 01:53:42;;;;;;;3.77;2.00;;;11.60;99.90;;;;;;5076140;28;20455;-58
2023/10/25 01:56:09;;;;;;;4.63;1.93;;;11.50;99.90;;;;;;5076631;28;20437;-58
2023/10/25 01:58:37;;;;;;;4.30;2.20;;;11.50;99.90;;;;;;5075937;28;20447;-58
2023/10/25 02:01:06;;;;;;;3.20;1.90;;;11.60;99.90;;;;;;5075840;28;20453;-58
2023/10/25 02:03:33;;;;;;;4.60;1.90;;;11.50;99.90;;;;;;5075653;28;21037;-58
2023/10/25 02:05:59;;;;;;;5.13;2.30;;;11.60;99.90;;;;;;5075567;28;20995;-58
2023/10/25 02:08:26;;;;;;;3.73;1.97;;;11.60;99.90;;;;;;5075818;28;20445;-58
2023/10/25 02:10:53;;;;;;;2.97;1.60;;;11.60;99.90;;;;;;5075638;28;20495;-58
2023/10/25 02:13:19;;;;;;;3.33;2.00;;;11.60;99.90;;;;;;5075683;28;20445;-58
2023/10/25 02:15:47;;;;;;;1.57;1.47;;;11.70;99.90;;;;;;5075452;28;20445;-58
2023/10/25 02:18:14;;;;;;;7.03;1.90;;;11.60;99.90;;;;;;5075672;28;20449;-58
2023/10/25 02:20:41;;;;;;;2.20;1.80;;;11.70;99.90;;;;;;5075469;28;20855;-58
2023/10/25 02:23:08;;;;;;;4.20;2.00;;;11.70;99.80;;;;;;5075588;28;20449;-57
2023/10/25 02:25:34;;;;;;;2.50;1.90;;;11.70;99.80;;;;;;5075246;28;20820;-58
2023/10/25 02:28:01;;;;;;;7.60;2.73;;;11.70;99.80;;;;;;5075449;28;20441;-58
2023/10/25 02:30:28;;;;;;;3.53;2.00;;;11.80;99.60;;;;;;5075181;28;20485;-58
2023/10/25 02:32:56;;;;;;;4.20;2.47;;;11.80;99.50;;;;;;5075176;28;20456;-58
2023/10/25 02:35:22;;;;;;;3.10;2.40;;;11.80;99.40;;;;;;5075265;28;20494;-58
2023/10/25 02:37:49;;;;;;;7.07;2.97;;;11.80;99.20;;;;;;5075245;28;20514;-58
2023/10/25 02:40:16;;;;;;;7.13;3.00;;;11.80;99.10;;;;;;5075215;28;20444;-58
2023/10/25 02:42:44;;;;;;;5.90;3.00;;;11.90;99.00;;;;;;5075215;28;20448;-58
2023/10/25 02:45:11;;;;;;;5.50;3.30;;;11.90;98.90;;;;;;5075155;28;20447;-58
2023/10/25 02:47:37;;;;;;;5.87;3.67;;;11.90;98.90;;;;;;5074899;28;20491;-58
2023/10/25 02:50:07;;;;;;;4.23;3.10;;;11.90;98.90;;;;;;5075219;28;20448;-58
2023/10/25 02:52:33;;;;;;;5.23;3.40;;;11.90;98.80;;;;;;5074994;28;20465;-58
2023/10/25 02:55:00;;;;;;;7.60;3.33;;;11.90;98.70;;;;;;5074912;28;20448;-58
2023/10/25 02:57:27;;;;;;;6.00;3.33;;;11.90;98.60;;;;;;5074869;28;20436;-58
2023/10/25 02:59:54;;;;;;;8.40;4.00;;;11.90;98.60;;;;;;5074552;28;20532;-58
2023/10/25 03:02:20;;;;;;;4.70;3.30;;;11.90;98.50;;;;;;5074378;28;20831;-58
2023/10/25 03:04:47;;;;;;;6.23;3.50;;;11.90;98.50;;;;;;5074575;28;20460;-58
2023/10/25 03:07:15;;;;;;;8.40;3.93;;;11.90;98.50;;;;;;5074776;28;20452;-57
2023/10/25 03:09:42;;;;;;;8.93;3.87;;;11.90;98.50;;;;;;5074158;28;20444;-58
2023/10/25 03:12:09;;;;;;;7.37;4.10;;;11.90;98.40;;;;;;5074413;28;20512;-57
2023/10/25 03:14:36;;;;;;;9.77;4.67;;;11.90;98.30;;;;;;5074566;28;20441;-58
2023/10/25 03:17:03;;;;;;;8.03;4.30;;;11.90;98.30;;;;;;5074205;28;20964;-58
2023/10/25 03:19:29;;;;;;;7.63;4.40;;;11.80;98.20;;;;;;5074209;28;20867;-57
2023/10/25 03:21:56;;;;;;;8.50;4.20;;;11.80;98.20;;;;;;5074345;28;20464;-58
2023/10/25 03:24:24;;;;;;;9.17;4.90;;;11.90;98.20;;;;;;5074343;28;20855;-58
2023/10/25 03:26:51;;;;;;;6.07;4.00;;;11.80;98.20;;;;;;5074607;28;20440;-57
2023/10/25 03:29:18;;;;;;;7.47;5.13;;;11.80;98.20;;;;;;5074273;28;20440;-57
2023/10/25 03:31:44;;;;;;;6.17;4.13;;;11.80;98.20;;;;;;5073736;28;21008;-57
2023/10/25 03:34:11;;;;;;;10.00;4.83;;;11.80;98.30;;;;;;5074213;28;20532;-57
2023/10/25 03:36:38;;;;;;;7.93;4.57;;;11.80;98.30;;;;;;5074113;28;20437;-57
2023/10/25 03:39:05;;;;;;;10.37;4.97;;;11.80;98.30;;;;;;5074969;28;20456;-57
2023/10/25 03:41:33;;;;;;;6.33;4.33;;;11.70;98.60;;;;;;5074047;28;20457;-58
2023/10/25 03:43:59;;;;;;;6.73;3.27;;;11.70;98.30;;;;;;5073993;28;20440;-57
2023/10/25 03:46:26;;;;;;;6.10;2.93;;;11.70;98.40;;;;;;5074269;28;20441;-57
2023/10/25 03:48:53;;;;;;;3.90;2.50;;;11.70;98.50;;;;;;5074026;28;20444;-58
2023/10/25 03:51:19;;;;;;;5.63;2.47;;;11.70;98.70;;;;;;5073430;28;20480;-58
2023/10/25 03:53:46;;;;;;;5.27;2.37;;;11.60;99.10;;;;;;5073819;28;20481;-57
2023/10/25 03:56:13;;;;;;;6.97;2.60;;;11.50;99.50;;;;;;5073758;28;20441;-57
2023/10/25 03:58:41;;;;;;;6.73;2.53;;;11.40;99.80;;;;;;5073795;28;20448;-57
2023/10/25 04:01:08;;;;;;;3.37;2.30;;;11.40;99.90;;;;;;5073685;28;20510;-57
2023/10/25 04:03:35;;;;;;;4.47;2.70;;;11.30;99.90;;;;;;5073513;28;20476;-57
2023/10/25 04:06:04;;;;;;;3.17;2.13;;;11.20;99.90;;;;;;5073650;28;20452;-57
2023/10/25 04:08:31;;;;;;;4.03;2.43;;;11.20;99.90;;;;;;5073629;28;20499;-57
2023/10/25 04:10:58;;;;;;;3.13;2.83;;;11.20;99.90;;;;;;5073403;28;20483;-57
2023/10/25 04:13:25;;;;;;;4.93;2.93;;;11.20;99.90;;;;;;5073614;28;20452;-57
2023/10/25 04:15:58;;;;;;;6.00;3.70;;;11.20;99.90;;;;;;5073549;28;20437;-57
2023/10/25 04:18:25;;;;;;;5.80;4.37;;;11.20;99.90;;;;;;5073493;28;20445;-57
2023/10/25 04:20:53;;;;;;;5.00;3.27;;;11.20;99.90;;;;;;5072610;28;20468;-57
2023/10/25 04:23:20;;;;;;;13.63;3.90;;;11.10;99.90;;;;;;5073423;28;20441;-57
2023/10/25 04:25:46;;;;;;;3.10;2.80;;;11.10;99.90;;;;;;5073379;28;20445;-57
2023/10/25 04:28:13;;;;;;;5.90;2.60;;;11.10;99.90;;;;;;5073386;28;20949;-57
2023/10/25 04:30:40;;;;;;;5.13;2.77;;;11.10;99.90;;;;;;5073168;28;20511;-57
2023/10/25 04:33:08;;;;;;;3.43;2.67;;;11.20;99.90;;;;;;5073051;28;20957;-57
2023/10/25 04:35:35;;;;;;;4.60;2.80;;;11.10;99.90;;;;;;5073407;28;20451;-57
2023/10/25 04:38:02;;;;;;;6.73;2.87;;;11.10;99.90;;;;;;5073362;28;20445;-57
2023/10/25 04:40:29;;;;;;;3.20;2.87;;;11.10;99.90;;;;;;5073254;28;20518;-57
2023/10/25 04:42:55;;;;;;;5.90;2.40;;;11.10;99.90;;;;;;5073329;28;20471;-57
2023/10/25 04:45:22;;;;;;;6.50;3.33;;;11.10;99.90;;;;;;5073248;28;20448;-57
2023/10/25 04:47:50;;;;;;;4.10;2.63;;;11.10;99.90;;;;;;5073198;28;20467;-57
2023/10/25 04:50:18;;;;;;;4.67;2.90;;;11.20;99.90;;;;;;5073103;28;20444;-57
2023/10/25 04:52:45;;;;;;;5.07;3.57;;;11.20;99.90;;;;;;5073118;28;20476;-57
2023/10/25 04:55:12;;;;;;;7.20;3.47;;;11.20;99.90;;;;;;5073095;28;20479;-57
2023/10/25 04:57:39;;;;;;;4.57;2.80;;;11.10;99.90;;;;;;5073145;28;20441;-57
2023/10/25 05:00:08;;;;;;;4.90;3.00;;;11.20;99.90;;;;;;5072695;28;20949;-57
2023/10/25 05:02:34;;;;;;;5.20;4.23;;;11.10;99.90;;;;;;5073104;28;20445;-57
2023/10/25 05:05:01;;;;;;;9.23;4.10;;;11.20;99.90;;;;;;5073040;28;20449;-57
2023/10/25 05:07:29;;;;;;;5.80;3.70;;;11.20;99.90;;;;;;5073088;28;20477;-57
2023/10/25 05:09:56;;;;;;;6.97;4.07;;;11.20;99.90;;;;;;5073017;28;20437;-57
2023/10/25 05:12:42;;;;;;;12.90;4.10;;;11.20;99.90;;;;;;5072820;28;20848;-57
2023/10/25 05:15:10;;;;;;;4.47;3.43;;;11.20;99.90;;;;;;5072923;28;20460;-57
2023/10/25 05:17:38;;;;;;;5.90;3.43;;;11.20;99.90;;;;;;5073035;28;20440;-58
2023/10/25 05:20:06;;;;;;;3.90;3.40;;;11.30;99.90;;;;;;5072527;28;20934;-57
2023/10/25 05:22:36;;;;;;;8.20;4.70;;;11.30;99.90;;;;;;5072898;28;20441;-57
2023/10/25 05:25:04;;;;;;;6.23;4.03;;;11.30;99.90;;;;;;5072923;28;20828;-57
2023/10/25 05:27:32;;;;;;;7.90;4.23;;;11.30;99.90;;;;;;5072781;28;20451;-57
2023/10/25 05:30:03;;;;;;;4.70;4.00;;;11.30;99.90;;;;;;5072861;28;20449;-57
2023/10/25 05:32:31;;;;;;;5.80;3.90;;;11.30;99.90;;;;;;5073702;28;20489;-57
2023/10/25 05:35:00;;;;;;;4.13;3.60;;;11.30;99.90;;;;;;5076591;28;20440;-57
2023/10/25 05:37:27;;;;;;;4.90;3.50;;;11.30;99.90;;;;;;5076215;28;20975;-57
2023/10/25 05:39:56;;;;;;;7.90;4.07;;;11.30;99.90;;;;;;5076409;28;20517;-57
2023/10/25 05:42:24;;;;;;;5.53;3.10;;;11.30;99.90;;;;;;5077146;28;20779;-57
2023/10/25 05:44:53;;;;;;;4.20;3.33;;;11.30;99.90;;;;;;5076487;28;20475;-57
2023/10/25 05:47:21;;;;;;;4.43;3.50;;;11.40;99.90;;;;;;5076824;28;20506;-57
2023/10/25 05:49:48;;;;;;;5.50;3.83;;;11.40;99.90;;;;;;5076272;28;20447;-57
2023/10/25 05:52:15;;;;;;;3.97;3.60;;;11.40;99.90;;;;;;5075718;28;20856;-57
2023/10/25 05:54:43;;;;;;;4.90;3.20;;;11.40;99.90;;;;;;5076173;28;20563;-57
2023/10/25 05:57:12;;;;;;;5.63;3.57;;;11.40;99.90;;;;;;5076010;28;20445;-57
2023/10/25 05:59:39;;;;;;;4.73;2.60;;;11.40;99.90;;;;;;5076072;28;20445;-57
2023/10/25 06:02:10;;;;;;;8.93;2.97;;;11.40;99.90;;;;;;5075959;28;20464;-57
2023/10/25 06:04:38;;;;;;;7.77;2.73;;;11.50;99.90;;;;;;5075639;28;20496;-57
2023/10/25 06:07:06;;;;;;;2.97;2.70;;;11.50;99.90;;;;;;5075995;28;20456;-57
2023/10/25 06:09:33;;;;;;;4.83;2.87;;;11.60;99.90;;;;;;5075830;28;20476;-57
2023/10/25 06:12:00;;;;;;;5.40;3.23;;;11.60;99.90;;;;;;5075793;28;20568;-57
2023/10/25 06:14:29;;;;;;;2.60;2.40;;;11.60;99.90;;;;;;5075791;28;20474;-57
2023/10/25 06:16:56;;;;;;;9.43;2.63;;;11.70;99.90;;;;;;5075786;28;20476;-57
2023/10/25 06:19:23;;;;;;;2.57;2.37;;;11.60;99.90;;;;;;5075441;28;20838;-57
2023/10/25 06:21:49;;;;;;;3.77;2.47;;;11.60;99.90;;;;;;5075420;28;20970;-57
2023/10/25 06:24:16;;;;;;;3.20;2.50;;;11.70;99.90;;;;;;5075895;28;20441;-57
2023/10/25 06:26:43;;;;;;;7.43;2.50;;;11.80;99.90;;;;;;5075379;28;20448;-57
2023/10/25 06:29:10;;;;;;;3.93;2.33;;;11.80;99.90;;;;;;5075661;28;20468;-57
2023/10/25 06:31:38;;;;;;;4.17;2.33;;;11.80;99.90;;;;;;5075454;28;20504;-57
2023/10/25 06:34:04;;;;;;;4.73;3.30;;;11.80;99.90;;;;;;5075562;28;20453;-57
2023/10/25 06:36:32;;;;;;;6.17;3.43;;;11.90;99.90;;;;;;5075578;28;20448;-57
2023/10/25 06:39:04;;;;;;;5.87;3.70;;;11.90;99.90;;;;;;5075409;28;20938;-57
2023/10/25 06:41:32;;;;;;;3.73;3.20;;;12.00;99.90;;;;;;5075361;28;20882;-57
2023/10/25 06:44:00;;;;;;;7.53;5.00;;;12.00;99.90;;;;;;5074401;28;20432;-57
2023/10/25 06:46:27;;;;;;;5.83;4.33;;;12.00;99.90;;;;;;5075330;28;20865;-57
2023/10/25 06:48:58;;;;;;;7.53;4.80;;;12.10;99.90;;;;;;5075155;28;20444;-57
2023/10/25 06:51:25;;;;;;;9.13;5.17;;;12.10;99.90;;;;;;5074966;28;20518;-57
2023/10/25 06:53:52;;;;;;;6.57;4.70;;;12.10;99.90;;;;;;5075320;28;20860;-57
2023/10/25 06:56:20;;;;;;;6.20;5.03;;;12.20;99.90;;;;;;5074866;28;20447;-57
2023/10/25 06:58:47;;;;;;;7.83;4.80;;;12.20;99.90;;;;;;5075018;28;20961;-57
2023/10/25 07:01:18;;;;;;;5.40;4.67;;;12.20;99.90;;;;;;5074944;28;20469;-58
2023/10/25 07:03:47;;;;;;;5.57;4.37;;;12.20;99.90;;;;;;5074764;28;20484;-57
2023/10/25 07:06:16;;;;;;;7.60;6.10;;;12.30;99.90;;;;;;5074905;28;20448;-57
2023/10/25 07:08:43;;;;;;;6.67;4.53;;;12.30;99.90;;;;;;5074796;28;20445;-57
2023/10/25 07:11:11;;;;;;;9.60;5.07;;;12.30;99.90;;;;;;5074385;28;20460;-57
2023/10/25 07:13:37;;;;;;;11.70;5.00;;;12.30;99.80;;;;;;5074627;28;20499;-57
2023/10/25 07:16:05;;;;;;;4.83;3.90;;;12.30;99.80;;;;;;5074685;28;20445;-57
2023/10/25 07:18:31;;;;;;;5.80;4.70;;;12.30;99.80;;;;;;5074570;28;20452;-57
2023/10/25 07:20:58;;;;;;;5.20;4.70;;;12.30;99.70;;;;;;5074353;28;21004;-57
2023/10/25 07:23:27;;;;;;;8.67;5.90;;;12.30;99.80;;;;;;5074409;28;20476;-57
2023/10/25 07:25:54;;;;;;;7.00;4.90;;;12.40;99.80;;;;;;5074668;28;20452;-57
2023/10/25 07:28:21;;;;;;;11.70;5.17;;;12.40;99.70;;;;;;5074490;28;20437;-57
2023/10/25 07:30:48;;;;;;;8.47;6.47;;;12.40;99.70;;;;;;5073957;28;20966;-57
2023/10/25 07:33:17;;;;;;;10.27;5.20;;;12.40;99.70;;;;;;5074393;28;20503;-57
2023/10/25 07:35:44;;;;;;;6.90;5.37;;;12.40;99.70;;;;;;5074228;28;20448;-57
2023/10/25 07:38:10;;;;;;;7.83;4.60;;;12.40;99.70;;;;;;5074178;28;20455;-57
2023/10/25 07:40:40;;;;;;;6.77;5.80;;;12.50;99.70;;;;;;5074065;28;20533;-57
2023/10/25 07:43:07;;;;;;;7.60;5.17;;;12.50;99.60;;;;;;5074065;28;20448;-57
2023/10/25 07:45:34;;;;;;;8.60;5.73;;;12.50;99.50;;;;;;5074008;28;20456;-57
2023/10/25 07:48:00;;;;;;;8.23;5.07;;;12.60;99.60;;;;;;5074012;28;20440;-57
2023/10/25 07:50:27;;;;;;;8.87;5.17;;;12.60;99.60;;;;;;5073886;28;20472;-58
2023/10/25 07:52:54;;;;;;;6.37;5.17;;;12.70;99.60;;;;;;5073469;28;20526;-57
2023/10/25 07:55:20;;;;;;;5.20;4.70;;;12.80;99.60;;;;;;5073752;28;20440;-57
2023/10/25 07:57:48;;;;;;;5.83;4.00;;;12.80;99.50;;;;;;5073880;28;20455;-57
2023/10/25 08:00:15;;;;;;;4.60;4.20;;;12.90;99.40;;;;;;5073719;28;20440;-58
2023/10/25 08:02:42;;;;;;;4.80;4.23;;;13.00;99.40;;;;;;5073577;28;20441;-58
2023/10/25 08:05:09;;;;;;;5.00;3.83;;;13.00;99.20;;;;;;5073472;28;20937;-57
2023/10/25 08:07:37;;;;;;;5.80;4.03;;;13.10;99.00;;;;;;5073685;28;20441;-57
2023/10/25 08:10:09;;;;;;;5.90;3.80;;;13.20;98.90;;;;;;5073749;28;20441;-58
2023/10/25 08:12:36;;;;;;;4.23;3.77;;;13.30;98.90;;;;;;5073689;28;20469;-58
2023/10/25 08:15:05;;;;;;;6.10;3.97;;;13.40;98.80;;;;;;5073289;28;20934;-58
2023/10/25 08:17:32;;;;;;;7.40;5.30;;;13.40;98.60;;;;;;5073898;28;20444;-58
2023/10/25 08:19:59;;;;;;;6.97;4.47;;;13.40;98.30;;;;;;5073363;28;20456;-57
2023/10/25 08:22:25;;;;;;;6.60;4.90;;;13.50;98.10;;;;;;5073552;28;20465;-57
2023/10/25 08:24:52;;;;;;;7.47;4.40;;;13.50;98.10;;;;;;5073664;28;20519;-57
2023/10/25 08:27:18;;;;;;;6.43;5.07;;;13.50;98.10;;;;;;5073645;28;20460;-58
2023/10/25 08:29:45;;;;;;;7.13;4.37;;;13.50;98.10;;;;;;5073601;28;20449;-58
2023/10/25 08:32:13;;;;;;;5.57;3.80;;;13.50;98.10;;;;;;5073202;28;20488;-58
2023/10/25 08:34:45;;;;;;;6.47;4.00;;;13.50;98.10;;;;;;5073344;28;20498;-58
2023/10/25 08:37:11;;;;;;;9.47;3.70;;;13.40;98.30;;;;;;5073095;28;20835;-58
2023/10/25 08:39:38;;;;;;;4.57;3.23;;;13.40;98.40;;;;;;5072965;28;20943;-58
2023/10/25 08:42:07;;;;;;;6.40;3.33;;;13.40;98.40;;;;;;5072851;28;20993;-58
2023/10/25 08:44:38;;;;;;;8.77;3.87;;;13.40;98.50;;;;;;5073216;28;20443;-58
2023/10/25 08:47:06;;;;;;;5.70;3.70;;;13.30;98.60;;;;;;5073274;28;20425;-56
2023/10/25 08:49:34;;;;;;;7.00;4.50;;;13.30;98.70;;;;;;5073210;28;20445;-56
2023/10/25 08:52:00;;;;;;;7.53;3.70;;;13.20;98.90;;;;;;5073054;28;20469;-56
2023/10/25 08:54:30;;;;;;;6.03;3.70;;;13.20;99.10;;;;;;5072932;28;20973;-56
2023/10/25 08:56:57;;;;;;;7.33;3.43;;;13.20;99.30;;;;;;5072820;28;20845;-56
2023/10/25 08:59:23;;;;;;;9.83;3.70;;;13.20;99.60;;;;;;5073108;28;20467;-56
2023/10/25 09:01:50;;;;;;;4.67;3.77;;;13.10;99.80;;;;;;5073022;28;20514;-56
2023/10/25 09:04:17;;;;;;;6.47;3.80;;;13.10;99.90;;;;;;5072644;28;20821;-56
2023/10/25 09:06:45;;;;;;;4.77;3.10;;;13.10;99.90;;;;;;5073307;28;20436;-56
2023/10/25 09:09:12;;;;;;;5.30;3.90;;;13.00;99.90;;;;;;5077179;28;20449;-56
2023/10/25 09:11:39;;;;;;;5.73;3.67;;;13.00;99.90;;;;;;5076901;28;20472;-57
2023/10/25 09:14:06;;;;;;;5.13;3.07;;;13.10;99.90;;;;;;5076523;28;20845;-57
2023/10/25 09:16:33;;;;;;;8.07;3.50;;;13.10;99.90;;;;;;5076925;28;20550;-58
2023/10/25 09:19:03;;;;;;;5.23;2.73;;;13.00;99.90;;;;;;5076848;28;20440;-58
2023/10/25 09:21:30;;;;;;;6.53;2.30;;;13.00;99.90;;;;;;5076707;28;20499;-58
2023/10/25 09:24:02;;;;;;;3.47;2.37;;;13.00;99.90;;;;;;5076757;28;20437;-58
2023/10/25 09:26:34;;;;;;;3.40;2.17;;;13.00;99.90;;;;;;5076778;28;20429;-58
2023/10/25 09:29:01;;;;;;;3.07;2.27;;;13.00;99.90;;;;;;5076443;28;20922;-58
2023/10/25 09:31:30;;;;;;;5.97;2.17;;;13.00;99.90;;;;;;5076643;28;20464;-57
2023/10/25 09:33:58;;;;;;;3.23;2.10;;;13.00;99.90;;;;;;5076602;28;20476;-57
2023/10/25 09:36:25;;;;;;;3.67;2.10;;;13.00;99.90;;;;;;5077382;28;20497;-57
2023/10/25 09:38:53;;;;;;;5.37;2.40;;;13.00;99.90;;;;;;5076490;28;20440;-57
2023/10/25 09:41:21;;;;;;;4.20;1.83;;;13.00;99.90;;;;;;5076211;28;20562;-57
2023/10/25 09:43:50;;;;;;;2.90;2.37;;;13.00;99.90;;;;;;5076047;28;20950;-57
2023/10/25 09:46:18;;;;;;;2.97;1.90;;;13.00;99.90;;;;;;5076288;28;20858;-58
2023/10/25 09:48:59;;;;;;;2.80;1.80;;;13.00;99.90;;;;;;5076341;28;20472;-58
2023/10/25 09:51:39;;;;;;;5.00;2.23;;;13.00;99.90;;;;;;5076200;28;20469;-58
2023/10/25 09:54:11;;;;;;;4.87;2.30;;;13.00;99.90;;;;;;5075873;28;20970;-58
2023/10/25 09:56:39;;;;;;;2.77;1.50;;;13.00;99.90;;;;;;5075860;28;20956;-58
2023/10/25 09:59:10;;;;;;;2.53;2.00;;;13.10;99.90;;;;;;5075701;28;20444;-58
2023/10/25 10:01:38;;;;;;;3.80;2.10;;;13.00;99.90;;;;;;5075995;28;20465;-58
2023/10/25 10:04:14;;;;;;;5.37;2.20;;;13.10;99.90;;;;;;5075696;28;20823;-58
2023/10/25 10:06:47;;;;;;;2.47;2.20;;;13.10;99.90;;;;;;5075704;28;20914;-58
2023/10/25 10:09:30;;;;;;;3.10;2.27;;;13.10;99.90;;;;;;5075617;28;20801;-58
2023/10/25 10:12:03;;;;;;;3.63;2.80;;;13.10;99.90;;;;;;5075856;28;20465;-58
2023/10/25 10:14:31;;;;;;;2.63;2.10;;;13.10;99.90;;;;;;5075982;28;20468;-58
2023/10/25 10:17:00;;;;;;;4.63;2.03;;;13.10;99.90;;;;;;5076133;28;20445;-58
2023/10/25 10:19:26;;;;;;;3.53;2.80;;;13.10;99.90;;;;;;5074438;28;20867;-58
2023/10/25 10:22:04;;;;;;;5.53;2.33;;;13.10;99.90;;;;;;5075686;28;20461;-59
2023/10/25 10:24:45;;;;;;;8.40;2.70;;;13.10;99.90;;;;;;5075665;28;20460;-58
2023/10/25 10:27:14;;;;;;;3.47;3.10;;;13.20;99.90;;;;;;5076454;28;20428;-58
2023/10/25 10:29:46;;;;;;;4.17;3.40;;;13.20;99.90;;;;;;5075530;28;20441;-58
2023/10/25 10:32:13;;;;;;;2.53;2.23;;;13.20;99.90;;;;;;5075434;28;20472;-58
2023/10/25 10:34:42;;;;;;;2.87;2.43;;;13.20;99.90;;;;;;5075468;28;20549;-58
2023/10/25 10:37:10;;;;;;;5.00;2.80;;;13.20;99.90;;;;;;5075302;28;20448;-58
2023/10/25 10:39:38;;;;;;;3.70;2.43;;;13.10;99.90;;;;;;5075304;28;20968;-58
2023/10/25 10:42:05;;;;;;;4.93;2.50;;;13.10;99.90;;;;;;5075372;28;20464;-58
2023/10/25 10:44:36;;;;;;;3.40;2.00;;;13.20;99.90;;;;;;5075244;28;20452;-58
2023/10/25 10:47:08;;;;;;;4.80;2.73;;;13.10;99.90;;;;;;5075015;28;20971;-58
2023/10/25 10:49:39;;;;;;;4.20;2.20;;;13.20;99.90;;;;;;5075188;28;20469;-59
2023/10/25 10:52:06;;;;;;;3.53;2.20;;;13.20;99.90;;;;;;5075100;28;20472;-58
2023/10/25 10:54:33;;;;;;;2.47;2.00;;;13.20;99.90;;;;;;5075233;28;20863;-58
2023/10/25 10:57:00;;;;;;;2.60;2.33;;;13.20;99.90;;;;;;5075016;28;20447;-58
2023/10/25 10:59:28;;;;;;;2.60;2.07;;;13.10;99.90;;;;;;5075792;28;20437;-58
2023/10/25 11:01:56;;;;;;;3.27;2.40;;;13.10;99.90;;;;;;5074613;28;20468;-58
2023/10/25 11:04:24;;;;;;;7.63;3.00;;;13.10;99.90;;;;;;5074455;28;20938;-57
2023/10/25 11:06:50;;;;;;;3.27;2.87;;;13.10;99.90;;;;;;5074847;28;20448;-57
2023/10/25 11:09:17;;;;;;;3.30;2.67;;;13.10;99.90;;;;;;5074854;28;20536;-56
2023/10/25 11:11:44;;;;;;;3.33;2.87;;;13.10;99.90;;;;;;5074652;28;20461;-56
2023/10/25 11:14:11;;;;;;;4.10;3.03;;;13.10;99.90;;;;;;5074580;28;20503;-56
2023/10/25 11:16:37;;;;;;;4.13;3.80;;;13.10;99.90;;;;;;5074595;28;20452;-56
2023/10/25 11:19:09;;;;;;;4.57;3.70;;;13.20;99.90;;;;;;5074259;28;20950;-56
2023/10/25 11:21:36;;;;;;;5.37;2.80;;;13.20;99.90;;;;;;5074600;28;20460;-56
2023/10/25 11:24:06;;;;;;;3.60;2.90;;;13.20;99.90;;;;;;5074153;28;20981;-56
2023/10/25 11:26:37;;;;;;;5.23;3.57;;;13.20;99.90;;;;;;5074451;28;20478;-57
2023/10/25 11:29:05;;;;;;;4.50;3.57;;;13.20;99.90;;;;;;5074310;28;20802;-57
2023/10/25 11:31:33;;;;;;;4.93;3.20;;;13.20;99.90;;;;;;5073909;28;20518;-57
2023/10/25 11:34:01;;;;;;;4.27;3.47;;;13.20;99.90;;;;;;5074233;28;20842;-57
2023/10/25 11:36:30;;;;;;;4.83;3.37;;;13.20;99.90;;;;;;5074212;28;20528;-57
2023/10/25 11:39:08;;;;;;;3.80;2.90;;;13.30;99.90;;;;;;5074224;28;20455;-57
2023/10/25 11:41:34;;;;;;;4.27;3.60;;;13.20;99.90;;;;;;5074022;28;20461;-56
2023/10/25 11:44:02;;;;;;;3.70;3.37;;;13.20;99.90;;;;;;5074038;28;20452;-56
2023/10/25 11:46:35;;;;;;;3.50;2.90;;;13.20;99.90;;;;;;5074058;28;20441;-57
2023/10/25 11:49:05;;;;;;;3.47;3.13;;;13.20;99.90;;;;;;5074029;28;20448;-57
2023/10/25 11:51:35;;;;;;;4.60;3.57;;;13.20;99.90;;;;;;5074623;28;20464;-57
2023/10/25 11:54:02;;;;;;;6.63;3.20;;;13.20;99.90;;;;;;5074054;28;20472;-57
2023/10/25 11:56:29;;;;;;;4.87;3.30;;;13.20;99.90;;;;;;5073905;28;20453;-57
2023/10/25 11:58:56;;;;;;;3.33;3.13;;;13.30;99.90;;;;;;5073513;28;20985;-57
2023/10/25 12:01:23;;;;;;;7.50;3.40;;;13.20;99.90;;;;;;5073696;28;20488;-56
2023/10/25 12:03:49;;;;;;;6.83;3.70;;;13.30;99.90;;;;;;5073234;28;20460;-56
2023/10/25 12:06:16;;;;;;;3.67;3.37;;;13.30;99.90;;;;;;5073770;28;20466;-57
2023/10/25 12:08:45;;;;;;;4.27;3.87;;;13.30;99.90;;;;;;5073573;28;20463;-57
2023/10/25 12:11:12;;;;;;;5.17;4.20;;;13.20;99.90;;;;;;5073748;28;20457;-57
2023/10/25 12:13:39;;;;;;;4.60;4.30;;;13.20;99.90;;;;;;5073514;28;20503;-57
2023/10/25 12:16:06;;;;;;;3.93;3.63;;;13.20;99.90;;;;;;5073578;28;20445;-57
2023/10/25 12:18:35;;;;;;;3.80;3.47;;;13.10;99.90;;;;;;5073537;28;20447;-57
2023/10/25 12:21:02;;;;;;;3.93;3.63;;;13.10;99.90;;;;;;5073433;28;20495;-57
2023/10/25 12:23:29;;;;;;;4.30;3.93;;;13.10;99.90;;;;;;5073452;28;20517;-57
2023/10/25 12:25:57;;;;;;;3.80;3.50;;;13.10;99.90;;;;;;5073473;28;20456;-57
2023/10/25 12:28:24;;;;;;;4.40;3.70;;;13.10;99.90;;;;;;5073947;28;20476;-57
2023/10/25 12:30:51;;;;;;;4.63;3.80;;;13.10;99.90;;;;;;5073401;28;20465;-57
2023/10/25 12:33:18;;;;;;;3.20;2.90;;;13.10;99.90;;;;;;5073276;28;20794;-57
2023/10/25 12:35:44;;;;;;;3.53;3.20;;;13.10;99.90;;;;;;5073155;28;20444;-57
2023/10/25 12:38:11;;;;;;;4.07;3.67;;;13.00;99.90;;;;;;5073378;28;20452;-57
2023/10/25 12:40:38;;;;;;;5.90;3.90;;;13.00;99.90;;;;;;5073264;28;20487;-57
2023/10/25 12:43:06;;;;;;;4.53;3.53;;;13.00;99.90;;;;;;5072520;28;20448;-57
2023/10/25 12:45:33;;;;;;;5.17;4.10;;;12.90;99.90;;;;;;5073192;28;20449;-56
2023/10/25 12:47:59;;;;;;;5.10;4.10;;;12.80;99.90;;;;;;5073244;28;20483;-57